Time;durP1;ratioP1;P1;durP2;ratioP2;P2;SDS_P1;SDS_P2;PMS_P1;PMS_P2;Temp;Humidity;BMP_temperature;BMP_pressure;BME280_temperature;BME280_humidity;BME280_pressure;Samples;Min_cycle;Max_cycle;Signal;HPM_P1;HPM_P2
2022/04/14 00:00:33;;;;;;;50.72;36.58;;;;;;;10.75;99.20;101817.25;5020992;28;20030;-84
2022/04/14 00:02:59;;;;;;;53.30;35.50;;;;;;;10.73;99.62;101817.28;5018277;28;20021;-84
2022/04/14 00:05:24;;;;;;;50.50;35.13;;;;;;;10.73;99.41;101817.28;5020346;28;20075;-84
2022/04/14 00:07:49;;;;;;;47.83;34.17;;;;;;;10.65;98.38;101820.19;5025443;28;20388;-84
2022/04/14 00:10:15;;;;;;;50.45;34.70;;;;;;;10.64;99.04;101814.94;5019410;28;20026;-84
2022/04/14 00:12:41;;;;;;;48.45;34.08;;;;;;;10.60;99.39;101816.84;5024765;28;20359;-84
2022/04/14 00:15:08;;;;;;;52.75;35.58;;;;;;;10.59;99.01;101814.25;5021929;28;20055;-84
2022/04/14 00:17:34;;;;;;;52.85;34.65;;;;;;;10.53;99.43;101803.81;5020420;28;20021;-84
2022/04/14 00:20:05;;;;;;;54.00;34.60;;;;;;;10.56;99.59;101809.03;5011333;28;20034;-84
2022/04/14 00:22:31;;;;;;;51.22;34.70;;;;;;;10.55;99.56;101804.63;5022507;28;20040;-84
2022/04/14 00:24:57;;;;;;;53.35;35.25;;;;;;;10.55;99.35;101807.28;5024352;28;20382;-84
2022/04/14 00:27:22;;;;;;;52.92;35.90;;;;;;;10.46;99.61;101789.84;5019757;28;20033;-85
2022/04/14 00:29:48;;;;;;;54.05;36.03;;;;;;;10.53;99.66;101804.66;5023043;28;20079;-84
2022/04/14 00:32:13;;;;;;;52.90;35.70;;;;;;;10.51;99.72;101803.88;5023829;28;20030;-84
2022/04/14 00:34:38;;;;;;;53.38;36.40;;;;;;;10.52;99.88;101802.06;5016516;28;20468;-85
2022/04/14 00:37:04;;;;;;;50.83;33.28;;;;;;;10.49;100.00;101803.03;5010226;28;20406;-84
2022/04/14 00:39:29;;;;;;;50.47;35.50;;;;;;;10.52;100.00;101802.94;5020337;28;20053;-84
2022/04/14 00:41:54;;;;;;;53.08;35.50;;;;;;;10.51;99.85;101795.88;5018924;28;20025;-84
2022/04/14 00:44:20;;;;;;;56.53;37.75;;;;;;;10.47;100.00;101792.44;5015604;28;20036;-84
2022/04/14 00:46:45;;;;;;;54.45;36.40;;;;;;;10.53;100.00;101803.81;5024490;28;20030;-84
2022/04/14 00:49:10;;;;;;;51.72;36.22;;;;;;;10.54;100.00;101794.91;5025826;28;20025;-84
2022/04/14 00:51:36;;;;;;;58.15;36.60;;;;;;;10.52;100.00;101799.41;5020650;28;20033;-84
2022/04/14 00:54:01;;;;;;;51.78;35.63;;;;;;;10.52;100.00;101807.38;5023758;28;20048;-84
2022/04/14 00:56:26;;;;;;;52.45;36.10;;;;;;;10.46;100.00;101793.38;5024135;28;20504;-84
2022/04/14 00:58:52;;;;;;;54.08;37.05;;;;;;;10.50;100.00;101806.59;5023688;28;20059;-84
2022/04/14 01:01:17;;;;;;;49.67;36.03;;;;;;;10.48;100.00;101802.16;5018417;28;20037;-84
2022/04/14 01:03:45;;;;;;;52.63;35.40;;;;;;;10.47;100.00;101805.75;5019732;28;20033;-84
2022/04/14 01:06:14;;;;;;;52.85;36.33;;;;;;;10.44;100.00;101797.88;5024472;28;20026;-84
2022/04/14 01:08:40;;;;;;;52.08;36.33;;;;;;;10.44;100.00;101800.53;5015784;28;20022;-84
2022/04/14 01:11:05;;;;;;;57.20;38.17;;;;;;;10.45;100.00;101810.28;5019230;28;20025;-84
2022/04/14 01:13:30;;;;;;;56.00;36.95;;;;;;;10.41;100.00;101799.81;5020225;28;20026;-84
2022/04/14 01:15:59;;;;;;;55.03;36.03;;;;;;;10.42;100.00;101807.72;5021300;28;20029;-84
2022/04/14 01:18:26;;;;;;;52.38;36.13;;;;;;;10.41;100.00;101807.78;5019660;28;20057;-84
2022/04/14 01:20:52;;;;;;;54.35;37.17;;;;;;;10.38;100.00;101798.09;5019819;28;20049;-84
2022/04/14 01:23:23;;;;;;;52.13;36.53;;;;;;;10.41;100.00;101807.78;5025894;28;20055;-84
2022/04/14 01:25:49;;;;;;;56.20;36.70;;;;;;;10.38;100.00;101794.56;5019995;28;20297;-83
2022/04/14 01:28:14;;;;;;;53.85;36.40;;;;;;;10.31;100.00;101793.91;5019560;28;20470;-84
2022/04/14 01:30:40;;;;;;;59.85;38.45;;;;;;;10.35;100.00;101795.53;5019879;28;20029;-83
2022/04/14 01:33:05;;;;;;;54.47;36.25;;;;;;;10.27;100.00;101792.28;5025255;28;20065;-84
2022/04/14 01:35:31;;;;;;;56.53;38.03;;;;;;;10.33;100.00;101800.06;5022817;28;20040;-84
2022/04/14 01:37:56;;;;;;;54.03;37.35;;;;;;;10.29;100.00;101797.56;5019565;28;20112;-84
2022/04/14 01:40:21;;;;;;;55.05;37.53;;;;;;;10.27;100.00;101797.59;5027905;28;20068;-84
2022/04/14 01:42:47;;;;;;;54.90;37.20;;;;;;;10.30;100.00;101802.81;5025374;28;20052;-84
2022/04/14 01:45:12;;;;;;;60.08;39.47;;;;;;;10.27;100.00;101794.06;5027770;28;20550;-84
2022/04/14 01:47:41;;;;;;;59.55;38.40;;;;;;;10.23;100.00;101796.78;5025683;28;20086;-84
2022/04/14 01:50:09;;;;;;;55.55;38.20;;;;;;;10.26;100.00;101795.00;5024474;28;20033;-84
2022/04/14 01:52:35;;;;;;;63.63;40.38;;;;;;;10.26;100.00;101798.53;5023955;28;20033;-83
2022/04/14 01:55:00;;;;;;;59.40;38.90;;;;;;;10.23;100.00;101796.78;5027577;28;20060;-84
2022/04/14 01:57:25;;;;;;;62.30;40.63;;;;;;;10.25;100.00;101810.09;5025703;28;20037;-84
2022/04/14 01:59:51;;;;;;;61.58;40.42;;;;;;;10.25;100.00;101803.91;5025815;28;20093;-83
2022/04/14 02:02:16;;;;;;;54.55;38.50;;;;;;;10.22;100.00;101799.53;5028518;28;20824;-84
2022/04/14 02:04:42;;;;;;;57.83;39.67;;;;;;;10.15;100.00;101798.84;5026050;28;20029;-84
2022/04/14 02:07:09;;;;;;;57.13;38.78;;;;;;;10.17;100.00;101802.34;5026994;28;20033;-83
2022/04/14 02:09:34;;;;;;;57.28;38.10;;;;;;;10.16;100.00;101815.72;5025431;28;20022;-83
2022/04/14 02:11:59;;;;;;;58.60;39.13;;;;;;;10.16;100.00;101813.03;5021562;28;20076;-84
2022/04/14 02:14:25;;;;;;;58.70;38.58;;;;;;;10.12;100.00;101808.75;5025068;28;20372;-84
2022/04/14 02:16:50;;;;;;;56.58;39.40;;;;;;;10.15;100.00;101813.94;5025352;28;20052;-83
2022/04/14 02:19:16;;;;;;;60.10;39.08;;;;;;;10.10;100.00;101799.94;5017679;28;20123;-83
2022/04/14 02:21:41;;;;;;;55.92;39.30;;;;;;;10.13;100.00;101807.81;5017488;28;20041;-83
2022/04/14 02:24:06;;;;;;;54.55;37.50;;;;;;;10.10;100.00;101816.75;5021120;28;20665;-83
2022/04/14 02:26:31;;;;;;;63.35;41.33;;;;;;;10.11;100.00;101806.97;5022795;28;20033;-84
2022/04/14 02:28:57;;;;;;;57.55;39.30;;;;;;;10.04;100.00;101795.69;5022066;28;20025;-84
2022/04/14 02:31:22;;;;;;;56.22;37.88;;;;;;;10.05;100.00;101807.19;5024258;28;20086;-84
2022/04/14 02:33:47;;;;;;;60.90;40.63;;;;;;;10.06;100.00;101815.13;5020777;28;20040;-84
2022/04/14 02:36:13;;;;;;;58.95;39.63;;;;;;;9.98;100.00;101807.38;5024584;28;20041;-83
2022/04/14 02:38:38;;;;;;;62.38;39.65;;;;;;;9.96;100.00;101811.91;5021446;28;20061;-84
2022/04/14 02:41:03;;;;;;;57.58;39.65;;;;;;;10.00;100.00;101818.00;5020271;28;20030;-84
2022/04/14 02:43:28;;;;;;;56.63;39.42;;;;;;;9.98;100.00;101812.72;5019366;28;20049;-84
2022/04/14 02:45:54;;;;;;;63.60;41.67;;;;;;;9.99;100.00;101824.25;5025606;28;20026;-83
2022/04/14 02:48:19;;;;;;;63.13;39.92;;;;;;;9.96;100.00;101822.53;5023915;28;20087;-84
2022/04/14 02:50:45;;;;;;;62.35;40.05;;;;;;;9.93;100.00;101821.78;5023400;28;20025;-83
2022/04/14 02:53:11;;;;;;;60.95;40.17;;;;;;;9.93;100.00;101821.78;5023748;28;20028;-84
2022/04/14 02:55:36;;;;;;;60.10;39.72;;;;;;;9.91;100.00;101820.97;5010473;28;20049;-84
2022/04/14 02:58:01;;;;;;;63.15;41.10;;;;;;;9.89;100.00;101818.34;5017660;28;20075;-83
2022/04/14 03:00:27;;;;;;;63.30;41.92;;;;;;;9.88;100.00;101821.91;5017285;28;20029;-83
2022/04/14 03:02:52;;;;;;;60.15;40.97;;;;;;;9.84;100.00;101811.44;5017694;28;20072;-83
2022/04/14 03:05:17;;;;;;;65.38;41.67;;;;;;;9.82;100.00;101811.47;5024223;28;20037;-84
2022/04/14 03:07:42;;;;;;;60.00;39.30;;;;;;;9.84;100.00;101819.41;5022180;28;20022;-84
2022/04/14 03:10:08;;;;;;;60.53;40.55;;;;;;;9.83;100.00;101821.22;5018852;28;20032;-84
2022/04/14 03:12:44;;;;;;;61.80;40.53;;;;;;;9.78;100.00;101817.84;5018903;28;20033;-83
2022/04/14 03:15:10;;;;;;;63.50;41.83;;;;;;;9.77;100.00;101824.03;5021462;28;20033;-83
2022/04/14 03:17:35;;;;;;;60.38;39.88;;;;;;;9.71;100.00;101814.47;5025951;28;20159;-83
2022/04/14 03:20:01;;;;;;;63.53;41.28;;;;;;;9.74;100.00;101826.81;5022349;28;20061;-83
2022/04/14 03:22:26;;;;;;;69.55;43.72;;;;;;;9.71;100.00;101833.09;5023227;28;20585;-83
2022/04/14 03:24:54;;;;;;;62.35;40.90;;;;;;;9.69;100.00;101828.72;5025427;28;20029;-83
2022/04/14 03:27:20;;;;;;;64.43;42.40;;;;;;;9.61;100.00;101817.47;5020967;28;20045;-84
2022/04/14 03:29:45;;;;;;;64.95;41.33;;;;;;;9.62;100.00;101821.88;5012106;28;20033;-83
2022/04/14 03:32:10;;;;;;;65.82;42.25;;;;;;;9.65;100.00;101829.75;5022902;28;20037;-83
2022/04/14 03:34:36;;;;;;;67.07;42.58;;;;;;;9.61;100.00;101834.28;5024038;28;20461;-83
2022/04/14 03:37:01;;;;;;;65.03;41.33;;;;;;;9.59;100.00;101819.31;5024727;28;20033;-83
2022/04/14 03:39:26;;;;;;;67.60;42.28;;;;;;;9.55;100.00;101815.00;5025024;28;20136;-84
2022/04/14 03:41:53;;;;;;;69.82;43.75;;;;;;;9.57;100.00;101830.00;5019888;28;20509;-83
2022/04/14 03:44:18;;;;;;;66.13;42.20;;;;;;;9.55;100.00;101828.31;5017369;28;20033;-83
2022/04/14 03:46:43;;;;;;;66.82;41.97;;;;;;;9.53;100.00;101831.03;5026150;28;20033;-83
2022/04/14 03:49:08;;;;;;;68.57;44.25;;;;;;;9.52;100.00;101831.06;5012425;28;20044;-83
2022/04/14 03:51:34;;;;;;;66.43;42.95;;;;;;;9.44;100.00;101821.50;5013395;28;20034;-83
2022/04/14 03:53:59;;;;;;;70.55;44.10;;;;;;;9.46;100.00;101818.81;5019074;28;20491;-83
2022/04/14 03:56:24;;;;;;;68.63;42.53;;;;;;;9.46;100.00;101822.34;5011332;28;20121;-83
2022/04/14 03:58:50;;;;;;;70.65;44.53;;;;;;;9.41;100.00;101821.63;5015205;28;20029;-84
2022/04/14 04:01:15;;;;;;;69.18;43.00;;;;;;;9.36;100.00;101817.34;5020824;28;20029;-84
2022/04/14 04:03:40;;;;;;;62.85;41.72;;;;;;;9.28;100.00;101819.38;5020553;28;20657;-84
2022/04/14 04:06:05;;;;;;;65.00;41.60;;;;;;;9.28;100.00;101827.34;5021458;28;20036;-83
2022/04/14 04:08:31;;;;;;;66.97;42.97;;;;;;;9.23;100.00;101817.72;5020937;28;20029;-84
2022/04/14 04:10:56;;;;;;;74.07;44.80;;;;;;;9.21;100.00;101831.97;5025454;28;20134;-84
2022/04/14 04:13:21;;;;;;;72.82;45.00;;;;;;;9.17;100.00;101827.66;5024473;28;20032;-84
2022/04/14 04:15:46;;;;;;;68.60;42.75;;;;;;;9.09;100.00;101824.38;5012826;28;20037;-83
2022/04/14 04:18:12;;;;;;;68.18;42.03;;;;;;;9.06;100.00;101821.78;5015075;28;20575;-83
2022/04/14 04:20:38;;;;;;;71.15;44.38;;;;;;;9.03;100.00;101824.53;5017281;28;20029;-83
2022/04/14 04:23:05;;;;;;;68.63;42.45;;;;;;;9.00;100.00;101837.91;5022341;28;20021;-83
2022/04/14 04:25:30;;;;;;;67.80;42.58;;;;;;;8.94;100.00;101842.47;5019791;28;20506;-84
2022/04/14 04:27:55;;;;;;;72.75;43.63;;;;;;;8.91;100.00;101847.00;5014924;28;20034;-84
2022/04/14 04:30:21;;;;;;;71.53;44.35;;;;;;;8.85;100.00;101842.72;5020899;28;20026;-83
2022/04/14 04:32:46;;;;;;;66.22;41.20;;;;;;;8.85;100.00;101842.72;5020254;28;20026;-84
2022/04/14 04:35:12;;;;;;;71.38;43.10;;;;;;;8.81;100.00;101850.81;5024390;28;20463;-83
2022/04/14 04:37:38;;;;;;;70.53;43.80;;;;;;;8.77;100.00;101854.47;5022598;28;20034;-83
2022/04/14 04:40:04;;;;;;;98.70;40.85;;;;;;;8.68;100.00;101851.16;5020045;28;20498;-83
2022/04/14 04:42:29;;;;;;;66.60;38.20;;;;;;;8.65;100.00;101853.91;5023759;28;20474;-83
2022/04/14 04:44:54;;;;;;;65.32;38.85;;;;;;;8.66;100.00;101852.13;5023658;28;20119;-83
2022/04/14 04:47:22;;;;;;;62.28;39.60;;;;;;;8.61;100.00;101854.00;5022314;28;20031;-83
2022/04/14 04:49:47;;;;;;;62.20;39.50;;;;;;;8.56;100.00;101851.47;5012196;28;20037;-84
2022/04/14 04:52:14;;;;;;;70.93;42.72;;;;;;;8.51;100.00;101852.50;5014933;28;20123;-84
2022/04/14 04:54:39;;;;;;;76.82;44.78;;;;;;;8.52;100.00;101846.28;5029478;28;20049;-84
2022/04/14 04:57:04;;;;;;;92.60;49.97;;;;;;;8.58;100.00;101848.81;5029000;28;20029;-84
2022/04/14 04:59:30;;;;;;;86.65;47.40;;;;;;;8.65;100.00;101860.97;5027484;28;20044;-83
2022/04/14 05:01:55;;;;;;;93.15;50.17;;;;;;;8.60;100.00;101852.25;5023919;28;20490;-84
2022/04/14 05:04:20;;;;;;;91.93;51.38;;;;;;;8.63;100.00;101853.06;5026179;28;20471;-83
2022/04/14 05:06:46;;;;;;;84.68;47.72;;;;;;;8.64;100.00;101864.53;5023272;28;20032;-83
2022/04/14 05:09:11;;;;;;;80.88;47.08;;;;;;;8.64;100.00;101875.16;5027058;28;20025;-83
2022/04/14 05:11:36;;;;;;;81.82;46.38;;;;;;;8.60;100.00;101870.84;5026788;28;20410;-83
2022/04/14 05:14:02;;;;;;;88.47;48.63;;;;;;;8.61;100.00;101872.56;5016095;28;20025;-83
2022/04/14 05:16:27;;;;;;;87.55;49.45;;;;;;;8.60;100.00;101873.50;5028617;28;20029;-83
2022/04/14 05:18:53;;;;;;;82.85;46.65;;;;;;;8.61;100.00;101869.94;5025820;28;20543;-83
2022/04/14 05:21:18;;;;;;;85.38;48.92;;;;;;;8.61;100.00;101875.22;5019549;28;20033;-83
2022/04/14 05:23:44;;;;;;;88.78;50.17;;;;;;;8.61;100.00;101867.28;5023407;28;20036;-86
2022/04/14 05:26:09;;;;;;;85.05;46.65;;;;;;;8.58;100.00;101865.59;5019326;28;20029;-85
2022/04/14 05:28:35;;;;;;;91.35;48.80;;;;;;;8.54;100.00;101853.31;5028444;28;20643;-86
2022/04/14 05:31:01;;;;;;;86.65;49.65;;;;;;;8.62;100.00;101877.00;5024259;28;20037;-86
2022/04/14 05:33:26;;;;;;;90.43;51.03;;;;;;;8.63;100.00;101881.38;5026448;28;20536;-87
2022/04/14 05:35:51;;;;;;;92.10;49.55;;;;;;;8.61;100.00;101886.75;5022751;28;20044;-86
2022/04/14 05:38:17;;;;;;;92.45;50.42;;;;;;;8.62;100.00;101890.28;5027415;28;20052;-85
2022/04/14 05:40:44;;;;;;;92.85;49.88;;;;;;;8.63;100.00;101897.31;5016829;28;20049;-86
2022/04/14 05:43:21;;;;;;;95.95;52.17;;;;;;;8.61;100.00;101892.06;5022713;28;20014;-86
2022/04/14 05:45:48;;;;;;;91.57;48.38;;;;;;;8.61;100.00;101885.84;5020950;28;20021;-86
2022/04/14 05:48:17;;;;;;;98.45;51.13;;;;;;;8.66;100.00;101895.44;5027244;28;20494;-86
2022/04/14 05:50:44;;;;;;;95.35;50.03;;;;;;;8.68;100.00;101887.44;5025463;28;20144;-86
2022/04/14 05:53:10;;;;;;;104.47;53.00;;;;;;;8.76;100.00;101890.75;5028115;28;20028;-86
2022/04/14 05:55:35;;;;;;;99.25;53.38;;;;;;;8.91;100.00;101900.97;5026346;28;20049;-86
2022/04/14 05:58:03;;;;;;;103.60;53.28;;;;;;;8.96;100.00;101893.75;5023856;28;20037;-86
2022/04/14 06:00:28;;;;;;;101.95;52.63;;;;;;;9.17;100.00;101907.34;5013574;28;20120;-85
2022/04/14 06:02:54;;;;;;;105.75;53.15;;;;;;;9.26;100.00;101908.88;5022505;28;20652;-86
2022/04/14 06:05:19;;;;;;;103.45;53.90;;;;;;;9.35;100.00;101909.47;5021339;28;20033;-91
2022/04/14 06:07:44;;;;;;;100.85;52.65;;;;;;;9.45;100.00;101918.94;5007244;28;20076;-85
2022/04/14 06:10:10;;;;;;;95.70;48.53;;;;;;;9.47;100.00;101905.59;5021135;28;20112;-85
2022/04/14 06:12:35;;;;;;;91.80;49.63;;;;;;;9.57;100.00;101907.09;5026123;28;20671;-84
2022/04/14 06:15:00;;;;;;;88.70;48.55;;;;;;;9.67;100.00;101911.19;5027316;28;20053;-85
2022/04/14 06:17:25;;;;;;;84.68;47.78;;;;;;;9.76;100.00;101917.16;5027929;28;20414;-86
2022/04/14 06:19:51;;;;;;;82.05;47.92;;;;;;;9.84;100.00;101915.13;5020051;28;20080;-86
2022/04/14 06:22:16;;;;;;;75.88;45.03;;;;;;;9.90;100.00;101907.81;5022160;28;20036;-88
2022/04/14 06:24:41;;;;;;;74.95;44.78;;;;;;;10.01;100.00;101914.63;5022742;28;20109;-86
2022/04/14 06:27:07;;;;;;;78.55;46.13;;;;;;;10.15;100.00;101904.38;5018178;28;20030;-86
2022/04/14 06:29:32;;;;;;;76.82;45.45;;;;;;;10.28;100.00;101904.91;5024777;28;20119;-86
2022/04/14 06:31:57;;;;;;;73.07;43.40;;;;;;;10.44;100.00;101908.78;5020318;28;20041;-87
2022/04/14 06:34:22;;;;;;;71.70;42.53;;;;;;;10.59;100.00;101908.28;5028897;28;20025;-85
2022/04/14 06:36:48;;;;;;;69.85;42.08;;;;;;;10.78;100.00;101904.97;5028544;28;20092;-85
2022/04/14 06:39:13;;;;;;;70.95;42.00;;;;;;;10.97;100.00;101914.94;5027706;28;20387;-86
2022/04/14 06:41:39;;;;;;;71.93;41.88;;;;;;;11.16;100.00;101917.84;5018384;28;20037;-85
2022/04/14 06:44:05;;;;;;;66.55;41.22;;;;;;;11.39;100.00;101913.44;5026374;28;20067;-86
2022/04/14 06:46:31;;;;;;;62.10;39.92;;;;;;;11.58;100.00;101913.59;5011687;28;20033;-86
2022/04/14 06:48:56;;;;;;;59.50;36.95;;;;;;;11.68;97.82;101921.22;5013979;28;20028;-86
2022/04/14 06:51:21;;;;;;;51.42;33.72;;;;;;;11.85;96.10;101923.25;5021735;28;20050;-86
2022/04/14 06:53:48;;;;;;;50.00;34.08;;;;;;;11.97;96.00;101921.91;5027674;28;20276;-86
2022/04/14 06:56:13;;;;;;;52.90;35.38;;;;;;;12.16;95.24;101922.03;5025701;28;20052;-89
2022/04/14 06:58:39;;;;;;;56.75;35.38;;;;;;;12.45;94.34;101923.50;5022555;28;20487;-85
2022/04/14 07:01:04;;;;;;;50.22;34.40;;;;;;;12.62;93.29;101915.69;5022520;28;20025;-87
2022/04/14 07:03:29;;;;;;;45.80;32.33;;;;;;;12.84;90.28;101923.66;5026227;28;20063;-87
2022/04/14 07:05:56;;;;;;;47.60;33.58;;;;;;;13.09;91.01;101923.44;5021733;28;20302;-86
2022/04/14 07:08:24;;;;;;;50.75;34.35;;;;;;;13.37;91.04;101925.75;5023879;28;20034;-87
2022/04/14 07:10:50;;;;;;;43.25;31.10;;;;;;;13.55;87.46;101912.50;5023943;28;20017;-88
2022/04/14 07:13:15;;;;;;;42.70;30.33;;;;;;;13.83;85.74;101922.78;5024174;28;20132;-93
2022/04/14 07:15:40;;;;;;;43.47;30.63;;;;;;;14.00;83.90;101930.00;5019349;28;20036;-87
2022/04/14 07:18:06;;;;;;;41.83;30.63;;;;;;;14.18;82.18;101926.44;5012353;28;20037;-87
2022/04/14 07:20:31;;;;;;;37.13;27.17;;;;;;;14.29;79.79;101902.66;5022381;28;20025;-87
2022/04/14 07:22:58;;;;;;;39.88;26.45;;;;;;;14.75;80.51;101921.81;5026350;28;20026;-87
2022/04/14 07:25:24;;;;;;;38.13;27.70;;;;;;;15.09;78.80;101922.75;5018548;28;20037;-87
2022/04/14 07:27:49;;;;;;;34.58;25.33;;;;;;;15.29;75.64;101925.25;5025439;28;20028;-87
2022/04/14 07:30:15;;;;;;;36.58;26.45;;;;;;;15.63;74.62;101929.69;5011411;28;20364;-87
2022/04/14 07:32:45;;;;;;;33.58;24.67;;;;;;;15.92;72.19;101930.75;5025684;28;20041;-87
2022/04/14 07:35:12;;;;;;;33.50;24.65;;;;;;;16.04;71.90;101939.06;5020650;28;20022;-87
2022/04/14 07:37:37;;;;;;;35.78;25.50;;;;;;;16.32;69.62;101930.31;5026333;28;20042;-87
2022/04/14 07:40:05;;;;;;;31.38;24.05;;;;;;;16.54;69.26;101949.59;5012804;28;20390;-87
2022/04/14 07:42:35;;;;;;;31.50;24.02;;;;;;;16.93;66.27;101945.56;5015930;28;20100;-87
2022/04/14 07:45:00;;;;;;;32.78;23.85;;;;;;;17.14;67.91;101933.50;5022720;28;20017;-87
2022/04/14 07:47:26;;;;;;;30.98;23.90;;;;;;;17.64;65.30;101951.03;5022506;28;20402;-87
2022/04/14 07:49:51;;;;;;;31.52;23.92;;;;;;;17.81;63.05;101946.44;5024466;28;20032;-87
2022/04/14 07:52:16;;;;;;;28.63;22.67;;;;;;;18.17;63.31;101943.16;5016013;28;20561;-87
2022/04/14 07:54:42;;;;;;;29.73;22.77;;;;;;;18.36;60.95;101951.78;5009878;28;20049;-87
2022/04/14 07:57:07;;;;;;;28.80;21.77;;;;;;;18.69;61.19;101939.72;5027590;28;20505;-88
2022/04/14 07:59:32;;;;;;;28.95;22.42;;;;;;;18.82;60.15;101942.47;5022176;28;20192;-88
2022/04/14 08:02:00;;;;;;;31.42;23.10;;;;;;;18.98;58.05;101945.88;5024783;28;20022;-87
2022/04/14 08:04:26;;;;;;;24.80;19.80;;;;;;;19.35;59.15;101941.47;5011577;28;20076;-87
2022/04/14 08:06:52;;;;;;;26.88;19.98;;;;;;;19.87;58.01;101945.00;5021432;28;20022;-87
2022/04/14 08:09:17;;;;;;;24.55;20.88;;;;;;;20.38;54.67;101952.94;5009507;28;20470;-87
2022/04/14 08:11:43;;;;;;;25.75;19.52;;;;;;;20.64;51.81;101941.03;5010890;28;20030;-88
2022/04/14 08:14:08;;;;;;;24.75;18.15;;;;;;;20.78;52.51;101945.41;5025919;28;20021;-87
2022/04/14 08:16:33;;;;;;;22.20;17.55;;;;;;;21.11;51.40;101941.09;5010797;28;20030;-87
2022/04/14 08:18:58;;;;;;;20.35;16.30;;;;;;;21.32;51.01;101944.00;5018886;28;20026;-87
2022/04/14 08:21:24;;;;;;;19.25;14.95;;;;;;;21.73;48.30;101946.06;5023595;28;20045;-87
2022/04/14 08:23:51;;;;;;;19.38;16.10;;;;;;;22.22;48.60;101942.09;5027119;28;20573;-87
2022/04/14 08:26:17;;;;;;;20.52;16.17;;;;;;;22.94;47.25;101946.03;5028018;28;20203;-87
2022/04/14 08:28:43;;;;;;;19.02;16.35;;;;;;;23.12;44.26;101939.03;5025490;28;20051;-88
2022/04/14 08:31:10;;;;;;;22.13;16.55;;;;;;;23.25;44.26;101939.69;5017147;28;20489;-87
2022/04/14 08:33:37;;;;;;;16.35;14.60;;;;;;;23.41;44.39;101944.66;5030769;28;20498;-87
2022/04/14 08:36:04;;;;;;;14.80;13.18;;;;;;;23.87;43.18;101940.59;5030814;28;20467;-87
2022/04/14 08:38:29;;;;;;;16.58;13.65;;;;;;;24.02;41.19;101938.31;5027238;28;20034;-87
2022/04/14 08:41:00;;;;;;;16.65;13.45;;;;;;;24.27;41.10;101956.84;5017418;28;20088;-88
2022/04/14 08:43:34;;;;;;;17.08;14.80;;;;;;;24.47;42.23;101948.75;5025750;28;20119;-88
2022/04/14 08:46:02;;;;;;;16.05;13.10;;;;;;;24.79;39.62;101949.34;5016226;28;20088;-87
2022/04/14 08:48:28;;;;;;;14.50;12.70;;;;;;;25.08;38.71;101949.34;5025978;28;20037;-87
2022/04/14 08:50:54;;;;;;;14.88;12.98;;;;;;;25.04;36.92;101947.88;5018447;28;20391;-87
2022/04/14 08:53:23;;;;;;;15.85;13.25;;;;;;;25.36;38.63;101945.81;5030784;28;20036;-87
2022/04/14 08:55:50;;;;;;;13.75;11.82;;;;;;;25.56;37.00;101944.75;5030501;28;20509;-87
2022/04/14 08:58:19;;;;;;;20.55;13.88;;;;;;;25.93;37.25;101939.31;5023491;28;20049;-87
2022/04/14 09:00:45;;;;;;;16.25;13.40;;;;;;;26.46;35.64;101946.78;5015843;28;20040;-87
2022/04/14 09:03:13;;;;;;;13.50;10.88;;;;;;;26.38;35.39;101948.50;5021324;28;20491;-87
2022/04/14 09:05:38;;;;;;;11.57;10.38;;;;;;;26.61;34.06;101940.75;5023229;28;20637;-87
2022/04/14 09:08:04;;;;;;;14.15;11.85;;;;;;;26.98;34.22;101944.16;5014741;28;20029;-88
2022/04/14 09:10:29;;;;;;;13.88;11.55;;;;;;;27.48;34.33;101939.91;5027409;28;20281;-87
2022/04/14 09:12:55;;;;;;;13.63;11.30;;;;;;;27.98;33.34;101933.66;5023272;28;20389;-87
2022/04/14 09:15:20;;;;;;;13.50;11.82;;;;;;;28.43;31.09;101940.66;5020076;28;20025;-85
2022/04/14 09:17:47;;;;;;;14.15;11.30;;;;;;;28.65;31.47;101950.09;5016743;28;20442;-85
2022/04/14 09:20:32;;;;;;;15.93;12.25;;;;;;;28.58;33.57;101946.31;5025396;28;20045;-86
2022/04/14 09:23:17;;;;;;;14.85;12.63;;;;;;;28.99;34.01;101945.31;5016997;28;20034;-85
2022/04/14 09:25:44;;;;;;;14.05;12.52;;;;;;;29.41;29.68;101937.91;5022509;28;20509;-86
2022/04/14 09:28:14;;;;;;;15.52;12.73;;;;;;;29.91;30.36;101939.47;5029465;28;20526;-86
2022/04/14 09:30:56;;;;;;;11.52;10.32;;;;;;;30.40;28.77;101931.84;5015920;28;20057;-86
2022/04/14 09:33:22;;;;;;;12.25;9.70;;;;;;;30.68;27.57;101934.91;5027992;28;20384;-89
2022/04/14 09:36:14;;;;;;;8.27;6.50;;;;;;;31.00;27.73;101931.03;5028941;28;20017;-89
2022/04/14 09:38:55;;;;;;;5.28;4.22;;;;;;;31.00;28.44;101928.28;5022902;28;20118;-85
2022/04/14 09:41:37;;;;;;;4.28;3.88;;;;;;;30.89;27.03;101931.50;5018519;28;20288;-86
2022/04/14 09:44:08;;;;;;;5.28;3.92;;;;;;;30.61;24.52;101935.81;5025927;28;20033;-86
2022/04/14 09:46:34;;;;;;;5.05;4.00;;;;;;;30.54;25.18;101934.81;5015493;28;20032;-86
2022/04/14 09:49:05;;;;;;;5.68;3.72;;;;;;;29.95;26.15;101936.19;5016534;28;20021;-87
2022/04/14 09:51:30;;;;;;;5.53;4.20;;;;;;;30.19;24.88;101916.00;5026509;28;20052;-86
2022/04/14 09:54:05;;;;;;;4.97;4.20;;;;;;;28.79;27.19;101928.34;5024696;28;20084;-86
2022/04/14 09:56:39;;;;;;;7.45;4.25;;;;;;;27.62;29.20;101925.59;5026217;28;20419;-86
2022/04/14 09:59:08;;;;;;;6.82;4.30;;;;;;;28.46;27.37;101926.63;5017475;28;20032;-86
2022/04/14 10:01:34;;;;;;;4.55;4.05;;;;;;;29.53;25.32;101915.41;5015831;28;20049;-86
2022/04/14 10:04:00;;;;;;;5.35;4.70;;;;;;;30.51;24.44;101922.28;5023371;28;20033;-86
2022/04/14 10:06:25;;;;;;;4.47;3.58;;;;;;;31.65;23.48;101906.63;5023213;28;20458;-86
2022/04/14 10:08:51;;;;;;;3.60;3.30;;;;;;;32.57;21.88;101909.66;5014916;28;20683;-86
2022/04/14 10:11:24;;;;;;;4.53;3.75;;;;;;;32.89;22.11;101910.97;5022172;28;20064;-86
2022/04/14 10:13:49;;;;;;;3.58;2.80;;;;;;;32.66;21.44;101900.19;5011330;28;20521;-86
2022/04/14 10:16:20;;;;;;;3.67;2.58;;;;;;;33.17;20.94;101896.38;5012931;28;20033;-86
2022/04/14 10:18:46;;;;;;;5.72;2.97;;;;;;;33.35;21.22;101904.97;5026410;28;20489;-86
2022/04/14 10:21:14;;;;;;;3.85;2.50;;;;;;;33.70;20.08;101911.34;5027536;28;20183;-87
2022/04/14 10:23:40;;;;;;;3.47;3.15;;;;;;;33.95;20.62;101922.72;5014997;28;20109;-86
2022/04/14 10:26:07;;;;;;;4.55;3.72;;;;;;;32.78;21.57;101921.72;5025174;28;20391;-86
2022/04/14 10:28:35;;;;;;;7.28;4.93;;;;;;;32.31;21.65;101923.09;5028467;28;20482;-86
2022/04/14 10:31:01;;;;;;;5.40;4.22;;;;;;;32.03;21.11;101925.78;5026662;28;20031;-86
2022/04/14 10:33:28;;;;;;;4.32;3.90;;;;;;;31.16;22.40;101942.91;5021567;28;20025;-86
2022/04/14 10:35:53;;;;;;;4.88;2.95;;;;;;;31.62;22.27;101946.38;5013902;28;20045;-87
2022/04/14 10:38:34;;;;;;;5.63;3.70;;;;;;;32.28;23.32;101945.56;5025555;28;20434;-86
2022/04/14 10:41:15;;;;;;;4.53;3.65;;;;;;;32.00;22.76;101943.53;5016528;28;20036;-86
2022/04/14 10:43:43;;;;;;;3.80;3.30;;;;;;;32.64;21.13;101927.06;5021417;28;20029;-87
2022/04/14 10:46:09;;;;;;;5.88;4.43;;;;;;;33.41;20.27;101941.94;5011248;28;20083;-86
2022/04/14 10:48:36;;;;;;;4.97;3.95;;;;;;;33.55;20.77;101937.38;5019769;28;20029;-86
2022/04/14 10:51:24;;;;;;;4.78;3.95;;;;;;;33.78;21.00;101948.13;5015776;28;20038;-87
2022/04/14 10:53:55;;;;;;;5.50;4.40;;;;;;;33.62;21.40;101952.94;5014031;28;20415;-86
2022/04/14 10:56:42;;;;;;;6.65;6.05;;;;;;;34.80;22.25;101949.97;5026474;28;20094;-86
2022/04/14 10:59:15;;;;;;;7.43;6.18;;;;;;;34.30;20.73;101960.47;5014666;28;20033;-88
2022/04/14 11:01:46;;;;;;;7.53;6.82;;;;;;;30.91;23.67;101961.53;5021185;28;20128;-88
2022/04/14 11:04:20;;;;;;;7.53;6.72;;;;;;;28.00;26.80;101954.34;5011700;28;20221;-86
2022/04/14 11:06:47;;;;;;;6.95;6.25;;;;;;;25.75;29.66;101955.59;5026968;28;20036;-87